Time;durP1;ratioP1;P1;durP2;ratioP2;P2;SDS_P1;SDS_P2;PMS_P1;PMS_P2;Temp;Humidity;BMP_temperature;BMP_pressure;BME280_temperature;BME280_humidity;BME280_pressure;Samples;Min_cycle;Max_cycle;Signal;HPM_P1;HPM_P2
2022/05/10 00:00:05;;;;;;;0.00;0.00;;;17.30;90.10;;;;;;5009578;28;20210;-79
2022/05/10 00:02:33;;;;;;;0.00;0.00;;;17.40;90.40;;;;;;5009357;28;20017;-80
2022/05/10 00:04:59;;;;;;;0.00;0.00;;;17.30;89.50;;;;;;5010076;28;20073;-79
2022/05/10 00:07:27;;;;;;;0.00;0.00;;;17.30;90.80;;;;;;5009514;28;20022;-79
2022/05/10 00:09:53;;;;;;;0.00;0.00;;;17.30;88.70;;;;;;5009633;28;20029;-79
2022/05/10 00:12:19;;;;;;;0.00;0.00;;;17.30;88.60;;;;;;5009240;28;20026;-78
2022/05/10 00:14:45;;;;;;;0.00;0.00;;;17.20;89.10;;;;;;5010121;28;20037;-80
2022/05/10 00:17:39;;;;;;;0.00;0.00;;;17.30;90.30;;;;;;5009866;28;20026;-78
2022/05/10 00:20:10;;;;;;;0.00;0.00;;;17.20;90.80;;;;;;5007436;28;20033;-77
2022/05/10 00:22:35;;;;;;;0.00;0.00;;;17.20;90.00;;;;;;5009204;28;20022;-79
2022/05/10 00:25:02;;;;;;;0.00;0.00;;;17.20;88.60;;;;;;5007773;28;20221;-81
2022/05/10 00:27:28;;;;;;;0.00;0.00;;;17.20;89.70;;;;;;5004551;28;20018;-80
2022/05/10 00:29:54;;;;;;;0.00;0.00;;;17.20;89.80;;;;;;5021800;28;20029;-79
2022/05/10 00:32:28;;;;;;;0.00;0.00;;;17.20;89.70;;;;;;5006231;28;20045;-80
2022/05/10 00:34:54;;;;;;;0.00;0.00;;;17.20;89.10;;;;;;5007270;28;20022;-79
2022/05/10 00:37:22;;;;;;;0.00;0.00;;;17.20;90.90;;;;;;5007176;28;20033;-79
2022/05/10 00:39:48;;;;;;;0.00;0.00;;;17.10;91.50;;;;;;5023984;28;20093;-80
2022/05/10 00:42:18;;;;;;;0.00;0.00;;;17.00;92.00;;;;;;5008039;28;20022;-80
2022/05/10 00:44:55;;;;;;;0.00;0.00;;;16.90;92.20;;;;;;5005613;28;20030;-79
2022/05/10 00:47:43;;;;;;;0.00;0.00;;;16.90;92.50;;;;;;5005861;28;20022;-78
2022/05/10 00:50:51;;;;;;;0.00;0.00;;;16.80;92.70;;;;;;5006214;28;20100;-79
2022/05/10 00:53:19;;;;;;;;;;;16.70;92.60;;;;;;5003131;28;20044;-79
2022/05/10 00:55:49;;;;;;;0.00;0.00;;;16.60;92.70;;;;;;5004831;28;19901;-78
2022/05/10 00:58:29;;;;;;;0.00;0.00;;;16.50;92.60;;;;;;5005843;28;20022;-79
2022/05/10 01:00:56;;;;;;;0.00;0.00;;;16.50;92.40;;;;;;5006027;28;20061;-78
2022/05/10 01:03:32;;;;;;;0.00;0.00;;;16.40;92.30;;;;;;5020522;28;20054;-78
2022/05/10 01:06:04;;;;;;;0.00;0.00;;;16.40;92.10;;;;;;5021203;28;20077;-80
2022/05/10 01:08:52;;;;;;;0.00;0.00;;;16.40;92.30;;;;;;5005612;28;20023;-80
2022/05/10 01:11:25;;;;;;;0.00;0.00;;;16.30;92.10;;;;;;5005021;28;20264;-80
2022/05/10 01:14:04;;;;;;;0.00;0.00;;;16.30;91.90;;;;;;5006190;28;20084;-81
2022/05/10 01:16:30;;;;;;;0.00;0.00;;;16.30;91.90;;;;;;5004317;28;20026;-81
2022/05/10 01:18:56;;;;;;;0.00;0.00;;;16.30;91.70;;;;;;5005519;28;20022;-79
2022/05/10 01:21:47;;;;;;;0.00;0.00;;;16.30;92.60;;;;;;5005040;28;20041;-79
2022/05/10 01:24:25;;;;;;;0.00;0.00;;;16.20;92.70;;;;;;5005061;28;20367;-81
2022/05/10 01:26:56;;;;;;;0.00;0.00;;;16.20;92.90;;;;;;5005924;28;20018;-81
2022/05/10 01:29:31;;;;;;;0.00;0.00;;;16.10;93.00;;;;;;5005131;28;20033;-79
2022/05/10 01:34:48;;;;;;;0.00;0.00;;;16.00;93.10;;;;;;5005006;28;20026;-82
2022/05/10 01:37:19;;;;;;;0.00;0.00;;;15.90;92.90;;;;;;5005111;28;20027;-81
2022/05/10 01:40:11;;;;;;;0.00;0.00;;;15.80;93.00;;;;;;5003914;28;20033;-81
2022/05/10 01:42:50;;;;;;;0.00;0.00;;;15.70;93.10;;;;;;5003636;28;20069;-81
2022/05/10 01:45:20;;;;;;;0.00;0.00;;;15.60;93.10;;;;;;5004099;28;20090;-81
2022/05/10 01:47:55;;;;;;;0.00;0.00;;;15.60;93.00;;;;;;5004693;28;20124;-81
2022/05/10 01:50:58;;;;;;;0.00;0.00;;;15.50;93.00;;;;;;5005072;28;20073;-80
2022/05/10 01:53:33;;;;;;;0.00;0.00;;;15.50;93.10;;;;;;5004669;28;20290;-80
2022/05/10 01:56:03;;;;;;;0.00;0.00;;;15.50;93.10;;;;;;5004674;28;20018;-82
2022/05/10 01:58:32;;;;;;;0.00;0.00;;;15.50;93.10;;;;;;5004087;28;20029;-82
2022/05/10 02:01:28;;;;;;;0.00;0.00;;;15.50;93.20;;;;;;5004732;28;20026;-82
2022/05/10 02:03:59;;;;;;;0.00;0.00;;;15.50;93.10;;;;;;4994041;28;20054;-82
2022/05/10 02:06:54;;;;;;;0.00;0.00;;;15.50;92.70;;;;;;5004274;28;20049;-81
2022/05/10 02:09:28;;;;;;;0.00;0.00;;;15.50;93.20;;;;;;5014901;28;20218;-80
2022/05/10 02:12:29;;;;;;;0.00;0.00;;;15.50;93.30;;;;;;5004659;28;20018;-80
2022/05/10 02:15:18;;;;;;;0.00;0.00;;;15.50;93.20;;;;;;5019260;28;20049;-79
2022/05/10 02:17:53;;;;;;;0.00;0.00;;;15.50;93.40;;;;;;5003736;28;20214;-79
2022/05/10 02:20:38;;;;;;;0.00;0.00;;;15.50;93.40;;;;;;5019235;28;20026;-80
2022/05/10 02:23:12;;;;;;;0.00;0.00;;;15.40;93.70;;;;;;5004393;28;20018;-80
2022/05/10 02:25:45;;;;;;;0.00;0.00;;;15.50;93.40;;;;;;5003680;28;20054;-79
2022/05/10 02:28:34;;;;;;;0.00;0.00;;;15.40;93.80;;;;;;5004315;28;20026;-84
2022/05/10 02:31:10;;;;;;;0.00;0.00;;;15.40;93.80;;;;;;5019254;28;20045;-81
2022/05/10 02:33:37;;;;;;;0.00;0.00;;;15.30;94.00;;;;;;5018787;28;20026;-80
2022/05/10 02:36:03;;;;;;;0.00;0.00;;;15.30;94.10;;;;;;5003803;28;20022;-80
2022/05/10 02:38:32;;;;;;;0.00;0.00;;;15.20;94.10;;;;;;5018734;28;20088;-80
2022/05/10 02:41:00;;;;;;;0.00;0.00;;;15.30;94.30;;;;;;5003902;28;20022;-80
2022/05/10 02:43:29;;;;;;;0.00;0.00;;;15.20;94.60;;;;;;5003499;28;20301;-77
2022/05/10 02:45:56;;;;;;;0.00;0.00;;;15.20;94.50;;;;;;5003794;28;20041;-80
2022/05/10 02:48:23;;;;;;;0.00;0.00;;;15.10;94.70;;;;;;5002246;28;20289;-80
2022/05/10 02:50:49;;;;;;;0.00;0.00;;;15.10;94.70;;;;;;5003162;28;20046;-80
2022/05/10 02:53:15;;;;;;;0.00;0.00;;;15.10;95.30;;;;;;5003753;28;20014;-80
2022/05/10 02:55:54;;;;;;;0.00;0.00;;;15.10;95.10;;;;;;5003266;28;20300;-80
2022/05/10 02:58:42;;;;;;;0.00;0.00;;;15.10;95.20;;;;;;5002894;28;20029;-80
2022/05/10 03:01:34;;;;;;;0.00;0.00;;;15.10;95.40;;;;;;5003717;28;20018;-79
2022/05/10 03:04:00;;;;;;;0.00;0.00;;;15.00;95.60;;;;;;5002477;28;20042;-80
2022/05/10 03:06:28;;;;;;;0.00;0.00;;;15.00;95.70;;;;;;5003396;28;20029;-80
2022/05/10 03:08:56;;;;;;;0.00;0.00;;;15.00;95.90;;;;;;5002467;28;20022;-80
2022/05/10 03:11:22;;;;;;;0.00;0.00;;;14.90;95.90;;;;;;5002422;28;20053;-82
2022/05/10 03:13:48;;;;;;;0.00;0.00;;;15.00;95.80;;;;;;5003205;28;20297;-80
2022/05/10 03:16:18;;;;;;;0.00;0.00;;;15.00;95.80;;;;;;5003637;28;20081;-81
2022/05/10 03:18:45;;;;;;;0.00;0.00;;;14.90;96.10;;;;;;5002768;28;20022;-81
2022/05/10 03:21:10;;;;;;;0.00;0.00;;;14.90;96.00;;;;;;5003673;28;20029;-80
2022/05/10 03:23:36;;;;;;;0.00;0.00;;;14.90;96.30;;;;;;5002699;28;20079;-81
2022/05/10 03:26:02;;;;;;;0.00;0.00;;;14.90;96.30;;;;;;5003275;28;20022;-80
2022/05/10 03:28:29;;;;;;;0.00;0.00;;;14.90;96.40;;;;;;5003305;28;20285;-80
2022/05/10 03:30:55;;;;;;;0.00;0.00;;;14.90;96.30;;;;;;5002329;28;20061;-79
2022/05/10 03:33:22;;;;;;;0.00;0.00;;;14.90;96.30;;;;;;5001547;28;20094;-77
2022/05/10 03:35:48;;;;;;;0.00;0.00;;;14.80;96.70;;;;;;5000785;28;20089;-79
2022/05/10 03:38:14;;;;;;;0.00;0.00;;;14.80;96.80;;;;;;5000741;28;20195;-81
2022/05/10 03:40:40;;;;;;;0.00;0.00;;;14.80;96.90;;;;;;5015094;28;20022;-80
2022/05/10 03:43:08;;;;;;;0.00;0.00;;;14.80;96.60;;;;;;4998618;28;20094;-79
2022/05/10 03:45:34;;;;;;;;;;;14.80;97.40;;;;;;5000221;28;20030;-80
2022/05/10 03:48:00;;;;;;;0.00;0.00;;;14.70;97.20;;;;;;5000545;28;19902;-79
2022/05/10 03:50:26;;;;;;;0.00;0.00;;;14.70;97.10;;;;;;5000583;28;20034;-80
2022/05/10 03:53:10;;;;;;;0.00;0.00;;;14.70;97.10;;;;;;5000062;28;20037;-79
2022/05/10 03:55:36;;;;;;;0.00;0.00;;;14.70;97.30;;;;;;5001515;28;20220;-80
2022/05/10 03:58:04;;;;;;;0.00;0.00;;;14.70;96.90;;;;;;5003228;28;20329;-80
2022/05/10 04:00:30;;;;;;;0.00;0.00;;;14.70;97.30;;;;;;5004874;28;20064;-80
2022/05/10 04:02:57;;;;;;;0.00;0.00;;;14.70;97.40;;;;;;5006818;28;20092;-80
2022/05/10 04:05:25;;;;;;;0.00;0.00;;;14.60;97.70;;;;;;5007298;28;20113;-80
2022/05/10 04:07:51;;;;;;;0.00;0.00;;;14.70;97.60;;;;;;5006250;28;20283;-80
2022/05/10 04:10:18;;;;;;;0.00;0.00;;;14.60;97.50;;;;;;5007514;28;20205;-80
2022/05/10 04:12:44;;;;;;;0.00;0.00;;;14.60;97.50;;;;;;5006609;28;20218;-80
2022/05/10 04:15:14;;;;;;;0.00;0.00;;;14.60;97.30;;;;;;5006558;28;20018;-79
2022/05/10 04:17:42;;;;;;;0.00;0.00;;;14.60;97.50;;;;;;5021307;28;20188;-80
2022/05/10 04:20:09;;;;;;;0.00;0.00;;;14.60;97.40;;;;;;5006962;28;20023;-80
2022/05/10 04:22:34;;;;;;;0.00;0.00;;;14.60;97.40;;;;;;5005766;28;20026;-80
2022/05/10 04:25:00;;;;;;;0.00;0.00;;;14.60;97.40;;;;;;5006646;28;20045;-80
2022/05/10 04:27:26;;;;;;;0.00;0.00;;;14.60;97.50;;;;;;5006209;28;20026;-79
2022/05/10 04:29:52;;;;;;;0.00;0.00;;;14.60;97.60;;;;;;5006003;28;20286;-79
2022/05/10 04:32:17;;;;;;;0.00;0.00;;;14.60;97.80;;;;;;5005272;28;20033;-80
2022/05/10 04:34:43;;;;;;;0.00;0.00;;;14.60;98.20;;;;;;5005866;28;20022;-80
2022/05/10 04:37:08;;;;;;;0.00;0.00;;;14.60;98.30;;;;;;5006076;28;20033;-80
2022/05/10 04:42:18;;;;;;;0.00;0.00;;;14.60;98.50;;;;;;5005896;28;20021;-81
2022/05/10 04:44:44;;;;;;;0.00;0.00;;;14.70;98.80;;;;;;5005417;28;20038;-80
2022/05/10 04:47:09;;;;;;;0.00;0.00;;;14.60;98.90;;;;;;5006040;28;20022;-79
2022/05/10 04:49:35;;;;;;;0.00;0.00;;;14.60;98.80;;;;;;5020595;28;20029;-79
2022/05/10 04:52:01;;;;;;;0.00;0.00;;;14.70;99.00;;;;;;5005702;28;20029;-80
2022/05/10 04:54:27;;;;;;;0.00;0.00;;;14.70;99.10;;;;;;5005557;28;20056;-80
2022/05/10 04:56:53;;;;;;;0.00;0.00;;;14.70;99.10;;;;;;5005320;28;20053;-80
2022/05/10 04:59:19;;;;;;;0.00;0.00;;;14.70;98.90;;;;;;5005746;28;20029;-80
2022/05/10 05:01:44;;;;;;;0.00;0.00;;;14.70;98.80;;;;;;5004348;28;20209;-79
2022/05/10 05:04:10;;;;;;;0.00;0.00;;;14.80;98.80;;;;;;5005583;28;20050;-78
2022/05/10 05:06:39;;;;;;;0.00;0.00;;;14.80;98.70;;;;;;5003905;28;20023;-80
2022/05/10 05:09:05;;;;;;;0.00;0.00;;;14.80;98.70;;;;;;5005420;28;20033;-81
2022/05/10 05:11:31;;;;;;;0.00;0.00;;;14.80;98.80;;;;;;5005174;28;20022;-79
2022/05/10 05:13:57;;;;;;;0.00;0.00;;;14.80;98.60;;;;;;5004827;28;20274;-79
2022/05/10 05:16:22;;;;;;;0.00;0.00;;;14.80;98.40;;;;;;5005335;28;20297;-80
2022/05/10 05:18:48;;;;;;;0.00;0.00;;;14.90;98.60;;;;;;5005069;28;20252;-80
2022/05/10 05:21:14;;;;;;;0.00;0.00;;;14.90;98.60;;;;;;5005199;28;20034;-79
2022/05/10 05:23:40;;;;;;;0.00;0.00;;;15.00;98.50;;;;;;5004372;28;20053;-80
2022/05/10 05:26:06;;;;;;;0.00;0.00;;;15.00;98.40;;;;;;5004170;28;20048;-79
2022/05/10 05:28:32;;;;;;;0.00;0.00;;;15.10;98.40;;;;;;5005286;28;20022;-80
2022/05/10 05:30:58;;;;;;;0.00;0.00;;;15.10;98.50;;;;;;5004377;28;20022;-79
2022/05/10 05:33:24;;;;;;;0.00;0.00;;;15.10;98.40;;;;;;5004152;28;20030;-80
2022/05/10 05:35:50;;;;;;;0.00;0.00;;;15.20;98.30;;;;;;5004633;28;20022;-80
2022/05/10 05:38:15;;;;;;;0.00;0.00;;;15.30;98.20;;;;;;5020380;28;20175;-80
2022/05/10 05:40:41;;;;;;;0.00;0.00;;;15.30;98.10;;;;;;5004695;28;20018;-80
2022/05/10 05:43:14;;;;;;;0.00;0.00;;;15.40;97.90;;;;;;5005825;28;20022;-80
2022/05/10 05:45:40;;;;;;;0.00;0.00;;;15.50;97.90;;;;;;5004420;28;20035;-80
2022/05/10 05:48:06;;;;;;;0.00;0.00;;;15.50;97.70;;;;;;5005838;28;20021;-80
2022/05/10 05:50:31;;;;;;;0.00;0.00;;;15.60;97.60;;;;;;5005366;28;20025;-80
2022/05/10 05:52:58;;;;;;;0.00;0.00;;;15.70;97.40;;;;;;5010919;28;20457;-81
2022/05/10 05:55:24;;;;;;;0.00;0.00;;;15.70;96.80;;;;;;5022951;28;20030;-78
2022/05/10 05:57:50;;;;;;;0.00;0.00;;;15.80;96.60;;;;;;5004426;28;20241;-81
2022/05/10 06:00:22;;;;;;;0.00;0.00;;;15.80;96.40;;;;;;5020523;28;20022;-83
2022/05/10 06:02:50;;;;;;;0.00;0.00;;;15.90;95.70;;;;;;5005018;28;20018;-83
2022/05/10 06:05:15;;;;;;;0.00;0.00;;;15.90;95.20;;;;;;5005198;28;20077;-82
2022/05/10 06:07:41;;;;;;;0.00;0.00;;;16.00;95.10;;;;;;5005094;28;20026;-82
2022/05/10 06:10:09;;;;;;;0.00;0.00;;;16.10;94.90;;;;;;5005070;28;20149;-82
2022/05/10 06:12:35;;;;;;;;;;;16.20;94.40;;;;;;5005065;28;20018;-80
2022/05/10 06:15:03;;;;;;;0.00;0.00;;;16.40;94.10;;;;;;5004144;28;20219;-81
2022/05/10 06:17:33;;;;;;;0.00;0.00;;;16.70;95.00;;;;;;5005084;28;20029;-80
2022/05/10 06:19:59;;;;;;;0.00;0.00;;;17.40;94.90;;;;;;5003653;28;20022;-81
2022/05/10 06:22:24;;;;;;;0.00;0.00;;;18.00;94.20;;;;;;5004205;28;20128;-80
2022/05/10 06:24:50;;;;;;;0.00;0.00;;;18.50;93.40;;;;;;5002442;28;20038;-81
2022/05/10 06:27:17;;;;;;;0.00;0.00;;;19.10;92.30;;;;;;5019111;28;20022;-80
2022/05/10 06:29:43;;;;;;;0.00;0.00;;;19.50;91.30;;;;;;5003554;28;20018;-78
2022/05/10 06:32:11;;;;;;;0.00;0.00;;;20.00;90.00;;;;;;5004116;28;20069;-79
2022/05/10 06:34:40;;;;;;;0.00;0.00;;;20.30;85.30;;;;;;5002851;28;20064;-80
2022/05/10 06:38:16;;;;;;;0.00;0.00;;;20.60;85.90;;;;;;5003211;28;20034;-80
2022/05/10 06:39:51;;;;;;;0.00;0.00;;;20.90;83.80;;;;;;5003384;28;20037;-79
2022/05/10 06:42:22;;;;;;;0.00;0.00;;;21.10;82.60;;;;;;5004055;28;20022;-79
2022/05/10 06:44:47;;;;;;;0.00;0.00;;;21.30;79.10;;;;;;5003411;28;20029;-80
2022/05/10 06:47:13;;;;;;;0.00;0.00;;;21.40;79.40;;;;;;5003917;28;20209;-80
2022/05/10 06:49:39;;;;;;;0.00;0.00;;;21.60;80.10;;;;;;5003582;28;20229;-79
2022/05/10 06:52:05;;;;;;;0.00;0.00;;;21.80;78.20;;;;;;5002324;28;20205;-79
2022/05/10 06:54:30;;;;;;;0.00;0.00;;;22.10;77.60;;;;;;4990750;28;20245;-80
2022/05/10 06:56:56;;;;;;;0.00;0.00;;;22.30;76.20;;;;;;4997271;28;20026;-80
2022/05/10 06:59:22;;;;;;;0.00;0.00;;;22.40;76.20;;;;;;5002084;28;20065;-80
2022/05/10 07:01:47;;;;;;;0.00;0.00;;;22.60;73.50;;;;;;5001281;28;20038;-80
2022/05/10 07:04:13;;;;;;;0.00;0.00;;;22.50;73.40;;;;;;5018085;28;20065;-79
2022/05/10 07:06:39;;;;;;;0.00;0.00;;;21.90;73.30;;;;;;5003348;28;20084;-78
2022/05/10 07:09:04;;;;;;;0.00;0.00;;;21.40;74.00;;;;;;5001718;28;20225;-81
2022/05/10 07:11:30;;;;;;;0.00;0.00;;;21.00;76.40;;;;;;5001925;28;20038;-80
2022/05/10 07:13:56;;;;;;;0.00;0.00;;;20.80;79.30;;;;;;5001200;28;20310;-80
2022/05/10 07:16:21;;;;;;;0.00;0.00;;;20.60;80.20;;;;;;5001899;28;20309;-79
2022/05/10 07:18:47;;;;;;;0.00;0.00;;;20.40;80.60;;;;;;5001272;28;20225;-79
2022/05/10 07:21:13;;;;;;;0.00;0.00;;;20.20;81.50;;;;;;5001598;28;20309;-74
2022/05/10 07:23:38;;;;;;;0.00;0.00;;;20.10;82.00;;;;;;5001785;28;20065;-73
2022/05/10 07:26:05;;;;;;;0.00;0.00;;;20.00;82.50;;;;;;5000993;28;20317;-79
2022/05/10 07:28:32;;;;;;;0.00;0.00;;;19.90;82.90;;;;;;5001609;28;20015;-79
2022/05/10 07:30:58;;;;;;;0.00;0.00;;;19.80;81.90;;;;;;4999820;28;20026;-80
2022/05/10 07:33:25;;;;;;;0.00;0.00;;;19.70;84.00;;;;;;5001354;28;20018;-79
2022/05/10 07:38:36;;;;;;;0.00;0.00;;;19.70;84.80;;;;;;5005714;28;20345;-79
2022/05/10 07:41:01;;;;;;;0.00;0.00;;;19.60;86.20;;;;;;5003580;28;20026;-79
2022/05/10 07:43:27;;;;;;;0.00;0.00;;;19.70;87.00;;;;;;5004962;28;20026;-79
2022/05/10 07:45:54;;;;;;;0.00;0.00;;;19.70;88.70;;;;;;5004888;28;20309;-78
2022/05/10 07:48:20;;;;;;;0.00;0.00;;;19.70;87.60;;;;;;5005413;28;20026;-80
2022/05/10 07:50:46;;;;;;;0.00;0.00;;;19.70;88.00;;;;;;5004786;28;20052;-78
2022/05/10 07:53:13;;;;;;;0.00;0.00;;;19.80;90.80;;;;;;5005275;28;20317;-76
2022/05/10 07:55:40;;;;;;;0.00;0.00;;;19.80;88.30;;;;;;5005246;28;20034;-77
2022/05/10 07:58:07;;;;;;;0.00;0.00;;;19.80;87.10;;;;;;5005148;28;20069;-79
2022/05/10 08:00:34;;;;;;;0.00;0.00;;;19.80;87.00;;;;;;5005098;28;20025;-79
2022/05/10 08:03:08;;;;;;;0.00;0.00;;;19.80;86.70;;;;;;5004780;28;20025;-77
2022/05/10 08:05:34;;;;;;;0.00;0.00;;;19.80;87.40;;;;;;5004820;28;20058;-78
2022/05/10 08:07:59;;;;;;;0.00;0.00;;;19.80;87.40;;;;;;5004602;28;20041;-78
2022/05/10 08:10:25;;;;;;;0.00;0.00;;;19.80;87.30;;;;;;5005069;28;20205;-78
2022/05/10 08:12:51;;;;;;;0.00;0.00;;;19.80;84.90;;;;;;5004388;28;20365;-78
2022/05/10 08:15:16;;;;;;;0.00;0.00;;;19.90;88.50;;;;;;5005031;28;20026;-78
2022/05/10 08:17:42;;;;;;;0.00;0.00;;;19.90;89.00;;;;;;5004632;28;20037;-72
2022/05/10 08:20:08;;;;;;;0.00;0.00;;;19.90;86.80;;;;;;5020074;28;20023;-73
2022/05/10 08:22:34;;;;;;;0.00;0.00;;;20.00;88.00;;;;;;4988349;28;20022;-79
2022/05/10 08:25:01;;;;;;;0.00;0.00;;;20.10;86.90;;;;;;5005150;28;20294;-79
2022/05/10 08:27:26;;;;;;;0.00;0.00;;;20.20;86.20;;;;;;5005210;28;20026;-78
2022/05/10 08:29:52;;;;;;;0.00;0.00;;;20.30;85.70;;;;;;5003746;28;20053;-79
2022/05/10 08:32:18;;;;;;;0.00;0.00;;;20.60;86.70;;;;;;5020201;28;20204;-79
2022/05/10 08:34:44;;;;;;;0.00;0.00;;;20.80;85.10;;;;;;5004357;28;20073;-77
2022/05/10 08:37:09;;;;;;;0.00;0.00;;;21.20;86.70;;;;;;5004998;28;20025;-76
2022/05/10 08:39:35;;;;;;;0.00;0.00;;;21.70;83.30;;;;;;5019854;28;20258;-78
2022/05/10 08:42:13;;;;;;;0.00;0.00;;;22.60;82.80;;;;;;5004269;28;20041;-77
2022/05/10 08:44:40;;;;;;;0.00;0.00;;;24.10;83.30;;;;;;5019791;28;20246;-78
2022/05/10 08:47:07;;;;;;;0.00;0.00;;;25.50;77.00;;;;;;5003292;28;20022;-78
2022/05/10 08:49:53;;;;;;;0.00;0.00;;;26.60;75.80;;;;;;5004206;28;20253;-79
2022/05/10 08:52:27;;;;;;;0.00;0.00;;;27.60;71.40;;;;;;5004241;28;20098;-79
2022/05/10 08:54:53;;;;;;;0.00;0.00;;;29.00;66.70;;;;;;5003674;28;20026;-80
2022/05/10 08:57:45;;;;;;;0.00;0.00;;;29.70;66.60;;;;;;5019245;28;20018;-79
2022/05/10 09:00:33;;;;;;;0.00;0.00;;;30.20;63.60;;;;;;5004224;28;20141;-75
2022/05/10 09:03:01;;;;;;;0.00;0.00;;;30.70;59.60;;;;;;4992816;28;20105;-75
2022/05/10 09:05:26;;;;;;;0.00;0.00;;;31.30;59.70;;;;;;5003804;28;20061;-79
2022/05/10 09:08:17;;;;;;;0.00;0.00;;;31.30;59.10;;;;;;5018948;28;20042;-80
2022/05/10 09:10:56;;;;;;;0.00;0.00;;;31.30;58.20;;;;;;5019006;28;20320;-78
2022/05/10 09:13:23;;;;;;;0.00;0.00;;;31.30;56.60;;;;;;5003917;28;20018;-79
2022/05/10 09:16:05;;;;;;;0.00;0.00;;;32.00;55.30;;;;;;5003188;28;20170;-78
2022/05/10 09:18:36;;;;;;;0.00;0.00;;;32.50;58.60;;;;;;5003643;28;20298;-79
2022/05/10 09:21:32;;;;;;;0.00;0.00;;;32.70;54.30;;;;;;5003256;28;20302;-80
2022/05/10 09:24:01;;;;;;;0.00;0.00;;;32.90;52.80;;;;;;5003241;28;20072;-80
2022/05/10 09:26:37;;;;;;;0.00;0.00;;;33.20;49.90;;;;;;5003590;28;20334;-80
2022/05/10 09:29:27;;;;;;;0.00;0.00;;;34.00;52.80;;;;;;5003573;28;20019;-78
2022/05/10 09:34:49;;;;;;;0.00;0.00;;;33.70;50.40;;;;;;5003764;28;20282;-76
2022/05/10 09:37:20;;;;;;;0.00;0.00;;;34.20;53.70;;;;;;5003888;28;20046;-76
2022/05/10 09:39:57;;;;;;;0.00;0.00;;;34.80;54.40;;;;;;5018509;28;20050;-78
2022/05/10 09:42:34;;;;;;;0.00;0.00;;;34.80;47.80;;;;;;5019392;28;20022;-78
2022/05/10 09:45:03;;;;;;;0.00;0.00;;;34.70;50.30;;;;;;5017971;28;20081;-78
2022/05/10 09:47:29;;;;;;;0.00;0.00;;;34.60;49.90;;;;;;5003294;28;20029;-78
2022/05/10 09:50:14;;;;;;;0.00;0.00;;;34.90;50.50;;;;;;5003148;28;20041;-80
2022/05/10 09:52:40;;;;;;;0.00;0.00;;;35.40;50.80;;;;;;5003485;28;20022;-78
2022/05/10 09:55:09;;;;;;;0.00;0.00;;;35.50;48.70;;;;;;5002086;28;20033;-80
2022/05/10 09:57:39;;;;;;;0.00;0.00;;;36.40;47.70;;;;;;5003324;28;20026;-79
2022/05/10 10:00:09;;;;;;;0.00;0.00;;;36.00;48.80;;;;;;5003390;28;20023;-79
2022/05/10 10:02:37;;;;;;;0.00;0.00;;;35.90;44.00;;;;;;5003839;28;20037;-80
2022/05/10 10:05:25;;;;;;;0.00;0.00;;;36.50;45.90;;;;;;5001414;28;20309;-80
2022/05/10 10:07:57;;;;;;;0.00;0.00;;;36.00;48.50;;;;;;5002866;28;20019;-77
2022/05/10 10:10:33;;;;;;;0.00;0.00;;;35.90;46.90;;;;;;5003143;28;20018;-77
2022/05/10 10:12:59;;;;;;;0.00;0.00;;;36.00;47.30;;;;;;5000952;28;20022;-79
2022/05/10 10:15:24;;;;;;;0.00;0.00;;;35.90;44.90;;;;;;5002669;28;20041;-79
2022/05/10 10:17:59;;;;;;;0.00;0.00;;;36.10;47.60;;;;;;5017842;28;20089;-79
2022/05/10 10:20:32;;;;;;;0.00;0.00;;;36.80;48.10;;;;;;5002444;28;20053;-79
2022/05/10 10:23:01;;;;;;;0.00;0.00;;;37.50;44.10;;;;;;5002473;28;20026;-78
2022/05/10 10:25:46;;;;;;;0.00;0.00;;;37.40;43.80;;;;;;5002859;28;20022;-79
2022/05/10 10:28:35;;;;;;;0.00;0.00;;;36.70;46.70;;;;;;5018232;28;20065;-75
2022/05/10 10:31:17;;;;;;;0.00;0.00;;;37.10;43.10;;;;;;5017532;28;20258;-77
2022/05/10 10:33:49;;;;;;;0.00;0.00;;;36.50;45.20;;;;;;5001737;28;20025;-79
2022/05/10 10:36:24;;;;;;;0.00;0.00;;;36.90;46.70;;;;;;5017965;28;20029;-80
2022/05/10 10:39:13;;;;;;;0.00;0.00;;;36.90;41.20;;;;;;5001841;28;20144;-80
2022/05/10 10:42:00;;;;;;;0.00;0.00;;;37.70;43.00;;;;;;5001457;28;20018;-74
2022/05/10 10:47:38;;;;;;;0.00;0.00;;;36.60;43.80;;;;;;5002361;28;20249;-75
2022/05/10 10:50:24;;;;;;;0.00;0.00;;;37.10;42.80;;;;;;5001947;28;20409;-80
2022/05/10 10:52:51;;;;;;;0.00;0.00;;;37.70;45.80;;;;;;5001690;28;20053;-79
2022/05/10 10:55:19;;;;;;;0.00;0.00;;;38.80;40.90;;;;;;5002128;28;20018;-78
2022/05/10 10:57:45;;;;;;;0.00;0.00;;;39.30;39.80;;;;;;5000734;28;20081;-76
2022/05/10 11:00:17;;;;;;;0.00;0.00;;;38.90;41.90;;;;;;4999233;28;20122;-74
2022/05/10 11:02:52;;;;;;;0.00;0.00;;;38.50;40.00;;;;;;4998597;28;20097;-75
2022/05/10 11:05:42;;;;;;;0.00;0.00;;;38.20;41.70;;;;;;5001758;28;20357;-77
2022/05/10 11:08:15;;;;;;;0.00;0.00;;;38.50;41.90;;;;;;5001888;28;20387;-77
2022/05/10 11:10:51;;;;;;;0.00;0.00;;;38.00;40.10;;;;;;5001520;28;20029;-75
2022/05/10 11:13:35;;;;;;;0.00;0.00;;;37.80;41.60;;;;;;5002068;28;20353;-77
2022/05/10 11:16:06;;;;;;;0.00;0.00;;;37.00;40.80;;;;;;5001286;28;20033;-79
2022/05/10 11:18:47;;;;;;;0.00;0.00;;;37.40;41.60;;;;;;5001715;28;20019;-79
2022/05/10 11:21:28;;;;;;;0.00;0.00;;;36.60;42.40;;;;;;5001828;28;20011;-77
2022/05/10 11:24:23;;;;;;;0.00;0.00;;;35.90;44.10;;;;;;5016331;28;20015;-76
2022/05/10 11:26:54;;;;;;;0.00;0.00;;;33.30;45.10;;;;;;5001405;28;20018;-76
2022/05/10 11:29:32;;;;;;;0.00;0.00;;;31.90;47.40;;;;;;5001802;28;20067;-77
2022/05/10 11:32:13;;;;;;;0.00;0.00;;;30.30;50.50;;;;;;4995449;28;20015;-80
2022/05/10 11:34:53;;;;;;;0.00;0.00;;;29.20;52.70;;;;;;5017266;28;20023;-76
2022/05/10 11:37:46;;;;;;;0.00;0.00;;;28.40;54.50;;;;;;5000589;28;20025;-77
2022/05/10 11:40:44;;;;;;;0.00;0.00;;;28.90;53.70;;;;;;5016979;28;20057;-77
2022/05/10 11:43:31;;;;;;;0.00;0.00;;;29.70;51.50;;;;;;5002379;28;20068;-75
2022/05/10 11:46:15;;;;;;;0.00;0.00;;;30.10;51.50;;;;;;5016312;28;20213;-78
2022/05/10 11:49:05;;;;;;;0.00;0.00;;;30.50;48.10;;;;;;5016889;28;20049;-78
2022/05/10 11:51:55;;;;;;;0.00;0.00;;;30.10;49.40;;;;;;5001703;28;20018;-78
2022/05/10 11:54:39;;;;;;;0.00;0.00;;;29.30;52.90;;;;;;5001297;28;20026;-77
2022/05/10 11:57:14;;;;;;;0.00;0.00;;;28.70;51.30;;;;;;5001273;28;20069;-78
2022/05/10 11:59:41;;;;;;;0.00;0.00;;;28.10;54.60;;;;;;5001478;28;20026;-77
2022/05/10 12:02:29;;;;;;;0.00;0.00;;;27.50;52.80;;;;;;5010183;28;20041;-77
2022/05/10 12:05:28;;;;;;;0.00;0.00;;;27.00;54.00;;;;;;5000201;28;20049;-76
2022/05/10 12:08:02;;;;;;;0.00;0.00;;;26.60;54.70;;;;;;5001874;28;20030;-78
2022/05/10 12:10:47;;;;;;;0.00;0.00;;;26.30;56.60;;;;;;5001245;28;20030;-76
2022/05/10 12:22:16;;;;;;;0.00;0.00;;;26.10;60.10;;;;;;5004646;28;20210;-77
2022/05/10 12:24:50;;;;;;;0.00;0.00;;;26.10;55.90;;;;;;5004940;28;20030;-79
2022/05/10 12:27:16;;;;;;;0.00;0.00;;;25.90;53.90;;;;;;5020111;28;20380;-80
2022/05/10 12:29:41;;;;;;;0.00;0.00;;;25.80;54.20;;;;;;5004948;28;20014;-75
2022/05/10 12:32:11;;;;;;;0.00;0.00;;;25.60;57.50;;;;;;4998344;28;20077;-77
2022/05/10 12:34:47;;;;;;;0.00;0.00;;;25.40;58.50;;;;;;5004618;28;20045;-78
2022/05/10 12:37:22;;;;;;;0.00;0.00;;;25.20;58.40;;;;;;5002793;28;20081;-77
2022/05/10 12:39:53;;;;;;;0.00;0.00;;;25.10;59.00;;;;;;5004507;28;20057;-78
2022/05/10 12:42:39;;;;;;;0.00;0.00;;;24.90;62.40;;;;;;5004294;28;20025;-77
2022/05/10 12:45:34;;;;;;;0.00;0.00;;;24.80;61.80;;;;;;5019232;28;20136;-77
2022/05/10 12:48:39;;;;;;;0.00;0.00;;;24.70;61.40;;;;;;5003632;28;20022;-77
2022/05/10 12:51:16;;;;;;;0.00;0.00;;;24.60;60.50;;;;;;5003999;28;20018;-78
2022/05/10 12:54:00;;;;;;;0.00;0.00;;;24.60;56.80;;;;;;5004112;28;20065;-76
2022/05/10 12:56:35;;;;;;;0.00;0.00;;;24.70;64.20;;;;;;5004117;28;20026;-78
2022/05/10 12:59:20;;;;;;;0.00;0.00;;;24.50;61.00;;;;;;5003679;28;20033;-79
2022/05/10 13:01:47;;;;;;;0.00;0.00;;;24.50;62.00;;;;;;4998492;28;20022;-74
2022/05/10 13:04:20;;;;;;;0.00;0.00;;;24.50;65.90;;;;;;5003212;28;20051;-74
2022/05/10 13:07:14;;;;;;;0.00;0.00;;;24.50;59.50;;;;;;5003108;28;20027;-78
2022/05/10 13:09:58;;;;;;;0.00;0.00;;;24.40;65.70;;;;;;5004006;28;20197;-77
2022/05/10 13:12:49;;;;;;;0.00;0.00;;;24.30;63.00;;;;;;5003639;28;20057;-79
2022/05/10 13:15:18;;;;;;;0.00;0.00;;;24.10;65.40;;;;;;4995776;28;20038;-77
2022/05/10 13:17:56;;;;;;;0.00;0.00;;;24.10;65.30;;;;;;5003824;28;20019;-79
2022/05/10 13:20:26;;;;;;;0.00;0.00;;;24.10;65.50;;;;;;5003623;28;20113;-79
2022/05/10 13:23:00;;;;;;;0.00;0.00;;;24.00;65.40;;;;;;5003713;28;20090;-75
2022/05/10 13:25:32;;;;;;;0.00;0.00;;;24.00;58.20;;;;;;5001220;28;20076;-77
2022/05/10 13:28:09;;;;;;;0.00;0.00;;;24.00;65.60;;;;;;5001038;28;20370;-79
2022/05/10 13:30:38;;;;;;;0.00;0.00;;;24.00;61.70;;;;;;5000124;28;20030;-76
2022/05/10 13:33:04;;;;;;;0.00;0.00;;;23.90;66.40;;;;;;4992491;28;20026;-79
2022/05/10 13:35:35;;;;;;;0.00;0.00;;;23.90;64.90;;;;;;5000904;28;20076;-77